Time;durP1;ratioP1;P1;durP2;ratioP2;P2;SDS_P1;SDS_P2;PMS_P1;PMS_P2;Temp;Humidity;BMP_temperature;BMP_pressure;BME280_temperature;BME280_humidity;BME280_pressure;Samples;Min_cycle;Max_cycle;Signal;HPM_P1;HPM_P2
2022/03/29 07:38:21;;;;;;;7.90;4.00;;;20.20;73.30;;;;;;6121202;22;96602;-48
2022/03/29 07:40:59;;;;;;;11.45;3.70;;;20.30;73.20;;;;;;5961011;22;4285534;-47
2022/03/29 07:43:38;;;;;;;9.15;3.58;;;20.20;73.40;;;;;;6075291;23;96241;-44
2022/03/29 07:46:11;;;;;;;10.65;3.67;;;20.30;73.30;;;;;;6060756;23;95904;-44
2022/03/29 07:48:47;;;;;;;10.68;3.20;;;20.40;73.10;;;;;;6022677;23;95960;-43
2022/03/29 07:51:39;;;;;;;8.65;3.05;;;20.40;72.90;;;;;;6025351;23;95725;-44
2022/03/29 07:54:10;;;;;;;9.95;3.38;;;20.50;72.60;;;;;;6025169;23;95507;-44
2022/03/29 07:56:42;;;;;;;;;;;20.50;72.20;;;;;;6026208;23;95349;-44
2022/03/29 07:59:19;;;;;;;8.75;2.50;;;20.50;71.70;;;;;;6026407;23;95922;-44
2022/03/29 08:01:54;;;;;;;6.28;2.38;;;20.50;71.50;;;;;;6002561;23;95925;-44
2022/03/29 08:04:29;;;;;;;5.78;2.28;;;20.60;71.40;;;;;;5997847;23;95118;-44
2022/03/29 08:07:04;;;;;;;9.38;2.42;;;20.60;71.20;;;;;;5997966;23;95742;-44
2022/03/29 08:09:35;;;;;;;;;;;20.60;71.20;;;;;;5997345;23;96040;-44
2022/03/29 08:12:12;;;;;;;8.30;2.13;;;20.60;71.00;;;;;;5998359;23;95567;-44
2022/03/29 08:14:50;;;;;;;6.10;2.25;;;20.60;70.90;;;;;;5996588;23;95504;-44
2022/03/29 08:17:33;;;;;;;5.25;2.25;;;20.60;70.80;;;;;;6015540;23;95623;-44
2022/03/29 08:20:31;;;;;;;6.00;2.60;;;20.60;70.70;;;;;;6025279;23;96624;-45
2022/03/29 08:23:45;;;;;;;3.20;1.75;;;20.60;70.70;;;;;;6025904;23;95196;-44
2022/03/29 08:26:20;;;;;;;6.82;2.33;;;20.70;70.70;;;;;;6026422;23;95599;-44
2022/03/29 08:31:44;;;;;;;6.88;2.03;;;20.70;70.50;;;;;;6020843;23;95753;-47
2022/03/29 08:34:20;;;;;;;9.57;2.40;;;20.70;70.60;;;;;;6025224;23;95607;-49
2022/03/29 08:36:55;;;;;;;9.00;2.78;;;20.70;70.60;;;;;;5997527;23;95915;-45
2022/03/29 08:39:29;;;;;;;8.25;2.10;;;20.80;70.70;;;;;;6026600;23;95868;-45
2022/03/29 08:42:08;;;;;;;6.88;2.17;;;20.80;70.60;;;;;;6047660;23;95966;-45
2022/03/29 08:44:41;;;;;;;8.02;2.38;;;20.70;70.50;;;;;;6053967;23;95943;-44
2022/03/29 08:47:16;;;;;;;8.05;2.78;;;20.60;71.00;;;;;;6017826;23;95629;-45
2022/03/29 08:49:49;;;;;;;8.13;2.05;;;20.60;71.20;;;;;;6054354;23;95449;-45
2022/03/29 08:52:23;;;;;;;8.15;2.13;;;20.60;71.40;;;;;;6054975;23;96041;-49
2022/03/29 08:54:56;;;;;;;9.88;2.60;;;20.50;71.40;;;;;;6054079;23;95943;-45
2022/03/29 08:57:27;;;;;;;8.07;2.30;;;20.50;71.50;;;;;;6055579;23;95539;-49
2022/03/29 08:59:59;;;;;;;5.45;1.88;;;20.50;71.40;;;;;;6052429;23;95604;-45
2022/03/29 09:02:35;;;;;;;7.75;2.40;;;20.50;71.30;;;;;;6022005;23;97066;-45
2022/03/29 09:05:21;;;;;;;11.65;2.25;;;20.50;71.40;;;;;;6054028;23;96068;-44
2022/03/29 09:07:59;;;;;;;9.90;2.30;;;20.50;71.40;;;;;;6055191;23;95203;-44
2022/03/29 09:10:46;;;;;;;6.40;1.83;;;20.50;71.60;;;;;;6028053;23;96126;-45
2022/03/29 09:13:31;;;;;;;6.43;2.22;;;20.50;71.80;;;;;;6054891;23;95791;-46
2022/03/29 09:16:09;;;;;;;3.47;2.28;;;20.50;72.20;;;;;;6047700;23;95608;-45
2022/03/29 09:21:59;;;;;;;6.97;2.20;;;20.50;72.20;;;;;;6056041;23;95951;-44
2022/03/29 09:24:35;;;;;;;8.35;2.13;;;20.50;72.50;;;;;;6055705;23;96507;-45
2022/03/29 09:27:11;;;;;;;7.13;1.83;;;20.50;72.40;;;;;;6055501;23;95582;-45
2022/03/29 09:30:07;;;;;;;5.38;2.05;;;20.50;72.70;;;;;;6030732;23;96032;-44
2022/03/29 09:32:53;;;;;;;7.78;2.88;;;20.50;72.60;;;;;;6004833;23;95504;-44
2022/03/29 09:36:10;;;;;;;3.53;2.00;;;20.50;72.80;;;;;;6054640;23;96120;-45
2022/03/29 09:38:47;;;;;;;4.57;1.55;;;20.50;72.90;;;;;;6054153;23;95873;-45
2022/03/29 09:41:29;;;;;;;3.13;2.05;;;20.50;72.90;;;;;;6054077;23;95651;-45
2022/03/29 09:44:11;;;;;;;3.60;1.88;;;20.50;72.90;;;;;;6055498;23;95690;-44
2022/03/29 09:47:02;;;;;;;4.03;2.00;;;20.50;72.90;;;;;;6043994;23;97506;-44
2022/03/29 09:49:59;;;;;;;3.90;1.92;;;20.50;73.00;;;;;;6053835;23;95697;-44
2022/03/29 09:52:37;;;;;;;2.40;1.70;;;20.50;73.00;;;;;;6056350;23;95635;-46
2022/03/29 09:55:23;;;;;;;5.65;2.05;;;20.50;73.00;;;;;;6029547;23;95914;-45
2022/03/29 09:58:00;;;;;;;3.67;1.58;;;20.50;72.90;;;;;;6052194;23;96592;-44
2022/03/29 10:00:42;;;;;;;5.45;2.10;;;20.50;72.80;;;;;;6048214;23;95799;-44
2022/03/29 10:03:19;;;;;;;7.28;2.13;;;20.40;72.70;;;;;;6054791;23;95578;-45
2022/03/29 10:06:05;;;;;;;2.65;1.80;;;20.40;72.70;;;;;;6055281;23;95703;-45
2022/03/29 10:11:35;;;;;;;4.53;2.03;;;20.40;72.50;;;;;;6054167;23;95755;-45
2022/03/29 10:14:17;;;;;;;4.30;1.50;;;20.40;72.50;;;;;;6054924;23;95462;-45
2022/03/29 10:16:53;;;;;;;2.42;1.58;;;20.50;72.50;;;;;;6048976;23;95889;-44
2022/03/29 10:19:37;;;;;;;3.35;1.70;;;20.50;72.40;;;;;;6030476;23;96714;-44
2022/03/29 10:22:18;;;;;;;4.55;1.92;;;20.50;72.30;;;;;;6054128;23;95933;-44
2022/03/29 10:24:53;;;;;;;3.30;1.48;;;20.50;72.20;;;;;;6055262;23;95587;-44
2022/03/29 10:27:29;;;;;;;2.35;1.50;;;20.50;72.10;;;;;;6055500;23;95924;-44
2022/03/29 10:30:11;;;;;;;4.47;1.67;;;20.50;72.00;;;;;;6054368;23;96415;-44
2022/03/29 10:32:43;;;;;;;3.65;1.50;;;20.40;72.10;;;;;;6053488;23;96088;-44
2022/03/29 10:35:16;;;;;;;2.83;1.65;;;20.50;72.00;;;;;;6055055;23;95739;-44
2022/03/29 10:38:01;;;;;;;3.88;1.60;;;20.50;71.90;;;;;;6054568;23;95925;-44
2022/03/29 10:40:43;;;;;;;3.38;1.75;;;20.50;71.90;;;;;;6054622;23;96036;-44
2022/03/29 10:43:34;;;;;;;4.17;1.93;;;20.50;71.90;;;;;;6027845;23;95815;-44
2022/03/29 10:46:43;;;;;;;4.18;1.30;;;20.50;72.00;;;;;;6043843;23;95333;-45
2022/03/29 10:49:34;;;;;;;2.50;1.42;;;20.50;72.10;;;;;;6053890;23;95598;-44
2022/03/29 10:52:09;;;;;;;2.88;1.45;;;20.40;71.70;;;;;;6054692;23;96590;-44
2022/03/29 10:54:45;;;;;;;1.48;1.38;;;20.50;71.70;;;;;;6054685;23;95451;-44
2022/03/29 10:57:25;;;;;;;3.10;1.88;;;20.50;71.70;;;;;;6054895;23;95575;-44
2022/03/29 11:00:10;;;;;;;5.38;1.75;;;20.50;71.60;;;;;;6055221;23;95725;-45
2022/03/29 11:03:12;;;;;;;2.85;1.38;;;20.50;71.60;;;;;;6052682;23;95867;-44
2022/03/29 11:06:06;;;;;;;3.40;1.55;;;20.40;71.50;;;;;;6054925;23;96014;-44
2022/03/29 11:08:49;;;;;;;1.73;1.45;;;20.50;71.50;;;;;;6055148;23;96372;-44
2022/03/29 11:11:43;;;;;;;2.95;1.58;;;20.50;71.50;;;;;;6055524;23;95763;-44
2022/03/29 11:14:34;;;;;;;3.47;1.45;;;20.50;71.40;;;;;;6054624;23;95889;-49
2022/03/29 11:17:09;;;;;;;3.47;1.53;;;20.40;71.50;;;;;;6048497;23;95334;-44
2022/03/29 11:19:59;;;;;;;3.15;1.38;;;20.40;71.30;;;;;;6054980;23;95724;-44
2022/03/29 11:22:35;;;;;;;4.65;1.50;;;20.40;71.30;;;;;;6055655;23;95492;-45
2022/03/29 11:25:10;;;;;;;3.17;1.48;;;20.50;71.50;;;;;;6054716;23;95738;-44
2022/03/29 11:27:43;;;;;;;3.20;1.20;;;20.40;71.20;;;;;;6054514;23;95822;-44
2022/03/29 11:30:20;;;;;;;2.10;1.67;;;20.40;71.30;;;;;;6055424;23;95813;-44
2022/03/29 11:32:55;;;;;;;2.05;1.45;;;20.50;71.40;;;;;;6053929;23;97197;-44
2022/03/29 11:35:32;;;;;;;2.50;1.50;;;20.40;71.40;;;;;;6029642;23;96352;-45
2022/03/29 11:38:15;;;;;;;2.38;1.10;;;20.40;71.20;;;;;;6053781;23;95763;-44
2022/03/29 11:44:02;;;;;;;3.50;1.42;;;20.40;71.20;;;;;;6055052;23;95817;-45
2022/03/29 11:56:56;;;;;;;2.70;1.40;;;20.40;71.40;;;;;;6055496;23;95839;-46
2022/03/29 11:59:32;;;;;;;1.98;1.20;;;20.40;71.40;;;;;;6055504;23;96363;-44
2022/03/29 12:02:06;;;;;;;3.20;1.15;;;20.40;71.00;;;;;;6048492;23;95544;-44
2022/03/29 12:04:41;;;;;;;4.90;1.40;;;20.40;71.20;;;;;;6055521;23;95707;-44
2022/03/29 12:07:15;;;;;;;1.98;1.40;;;20.30;71.30;;;;;;6055700;23;95971;-44
2022/03/29 12:09:49;;;;;;;2.42;1.05;;;20.30;71.40;;;;;;6054408;23;96380;-44
2022/03/29 12:12:20;;;;;;;2.83;1.33;;;20.40;71.40;;;;;;6054911;23;95825;-44
2022/03/29 12:15:06;;;;;;;2.05;1.15;;;20.30;71.40;;;;;;6054710;23;95313;-44
2022/03/29 12:20:49;;;;;;;3.83;1.50;;;20.30;71.40;;;;;;6054807;23;95901;-44
2022/03/29 12:23:31;;;;;;;1.98;1.42;;;20.30;71.40;;;;;;6055317;23;95969;-44
2022/03/29 12:26:08;;;;;;;4.18;1.20;;;20.30;71.40;;;;;;6054864;23;95163;-45
2022/03/29 12:28:41;;;;;;;2.63;1.42;;;20.30;71.50;;;;;;6054859;23;95479;-44
2022/03/29 12:31:15;;;;;;;3.75;1.20;;;20.30;71.40;;;;;;6047811;23;96342;-44
2022/03/29 12:34:14;;;;;;;3.90;1.27;;;20.30;71.40;;;;;;6052917;23;96065;-44
2022/03/29 12:36:55;;;;;;;2.17;1.40;;;20.30;71.40;;;;;;6055140;23;95806;-44
2022/03/29 12:39:37;;;;;;;4.43;1.20;;;20.30;71.40;;;;;;6055611;23;95227;-44
2022/03/29 12:42:19;;;;;;;2.63;1.33;;;20.20;71.40;;;;;;6053504;23;95846;-44
2022/03/29 12:44:59;;;;;;;3.10;1.23;;;20.30;71.50;;;;;;6026607;23;97590;-44
2022/03/29 12:47:34;;;;;;;3.80;1.30;;;20.30;71.60;;;;;;6046794;23;95926;-44
2022/03/29 12:50:07;;;;;;;4.13;1.20;;;20.20;70.40;;;;;;6055267;23;95548;-44
2022/03/29 12:52:45;;;;;;;3.53;1.00;;;20.20;71.50;;;;;;6054763;23;95999;-44
2022/03/29 12:55:18;;;;;;;1.95;1.35;;;20.20;71.50;;;;;;6055006;23;95750;-44
2022/03/29 12:57:53;;;;;;;3.97;1.13;;;20.20;71.60;;;;;;6055930;23;95163;-44
2022/03/29 13:00:36;;;;;;;5.05;1.30;;;20.20;71.60;;;;;;6050507;23;96175;-44
2022/03/29 13:03:09;;;;;;;1.40;1.02;;;20.20;71.50;;;;;;6054839;23;102177;-44
2022/03/29 13:06:03;;;;;;;2.97;1.35;;;20.20;71.50;;;;;;6055727;23;95803;-44
2022/03/29 13:08:34;;;;;;;5.47;1.15;;;20.20;71.50;;;;;;6056257;23;95424;-44
2022/03/29 13:11:17;;;;;;;3.17;1.02;;;20.20;71.50;;;;;;6056528;23;95628;-44
2022/03/29 13:14:05;;;;;;;2.38;1.20;;;20.20;71.60;;;;;;6055825;23;95860;-45
2022/03/29 13:16:50;;;;;;;4.25;1.45;;;20.20;71.50;;;;;;6049347;23;96096;-44
2022/03/29 13:19:24;;;;;;;1.70;1.20;;;20.20;71.50;;;;;;6056481;23;95649;-44
2022/03/29 13:22:03;;;;;;;3.22;1.35;;;20.20;71.50;;;;;;6056078;23;96099;-44
2022/03/29 13:24:40;;;;;;;3.45;1.00;;;20.20;71.90;;;;;;6056156;23;95785;-42
2022/03/29 13:27:11;;;;;;;1.33;0.90;;;20.40;71.80;;;;;;6057371;23;95143;-41
2022/03/29 13:29:42;;;;;;;2.90;1.20;;;20.60;70.80;;;;;;6057589;23;95630;-44
2022/03/29 13:32:15;;;;;;;1.95;1.08;;;20.70;70.90;;;;;;6053064;23;95780;-43
2022/03/29 13:34:48;;;;;;;2.08;1.15;;;21.00;71.00;;;;;;6058726;23;95608;-45
2022/03/29 13:37:21;;;;;;;1.90;0.93;;;21.20;70.60;;;;;;6059286;23;95636;-43
2022/03/29 13:39:55;;;;;;;1.83;1.10;;;21.40;70.20;;;;;;6059379;23;95726;-43
2022/03/29 13:42:29;;;;;;;2.03;1.00;;;21.50;69.90;;;;;;6058448;23;95787;-46
2022/03/29 13:45:03;;;;;;;1.23;1.10;;;21.60;69.80;;;;;;6056740;23;95146;-44
2022/03/29 13:47:37;;;;;;;1.42;0.95;;;21.80;69.50;;;;;;6054039;23;95555;-50
2022/03/29 13:50:12;;;;;;;1.25;0.70;;;21.90;68.80;;;;;;6059259;23;95602;-43
2022/03/29 13:52:48;;;;;;;1.42;0.80;;;22.00;69.00;;;;;;6057087;23;95668;-41
2022/03/29 13:55:20;;;;;;;1.38;0.80;;;22.10;68.80;;;;;;6058277;23;95905;-42
2022/03/29 13:57:54;;;;;;;1.20;0.80;;;22.20;68.50;;;;;;6058705;23;95479;-42
2022/03/29 14:00:29;;;;;;;1.33;0.98;;;22.30;68.40;;;;;;6053681;23;95659;-43
2022/03/29 14:03:01;;;;;;;1.08;0.70;;;22.40;68.30;;;;;;6059298;23;95723;-42
2022/03/29 14:05:34;;;;;;;1.10;0.90;;;22.50;68.20;;;;;;6059011;23;95551;-43
2022/03/29 14:08:06;;;;;;;0.98;0.85;;;22.60;68.10;;;;;;6058344;23;95598;-43
2022/03/29 14:10:43;;;;;;;0.80;0.75;;;22.70;67.90;;;;;;6059151;23;95191;-46
2022/03/29 14:13:15;;;;;;;1.00;1.00;;;22.80;67.70;;;;;;6057367;23;95660;-43
2022/03/29 14:15:49;;;;;;;1.85;0.80;;;22.80;67.70;;;;;;6049567;23;95904;-45
2022/03/29 14:18:22;;;;;;;1.55;0.90;;;22.80;67.80;;;;;;6028325;23;95953;-46
2022/03/29 14:20:54;;;;;;;1.38;0.90;;;22.90;67.70;;;;;;6057690;23;95585;-43
2022/03/29 14:23:26;;;;;;;1.60;0.90;;;23.00;67.70;;;;;;6057768;23;95700;-41
2022/03/29 14:25:58;;;;;;;1.63;0.77;;;23.00;67.50;;;;;;6057255;23;96266;-42
2022/03/29 14:28:30;;;;;;;0.75;0.60;;;23.00;67.50;;;;;;6055224;23;95634;-41
2022/03/29 14:31:01;;;;;;;1.15;0.88;;;23.00;67.80;;;;;;6051839;23;95883;-41
2022/03/29 14:33:33;;;;;;;2.05;0.65;;;22.90;67.90;;;;;;6056724;23;95555;-43
2022/03/29 14:36:08;;;;;;;2.75;0.82;;;22.90;68.40;;;;;;6056076;23;96592;-42
2022/03/29 14:38:42;;;;;;;0.70;0.70;;;22.90;68.60;;;;;;6030047;23;95576;-41
2022/03/29 14:41:31;;;;;;;7.43;1.40;;;22.90;69.00;;;;;;6055953;23;95768;-43
2022/03/29 14:44:08;;;;;;;3.00;1.77;;;22.50;65.00;;;;;;6057321;23;95524;-43
2022/03/29 14:46:47;;;;;;;3.47;1.23;;;22.10;65.20;;;;;;6045001;23;95781;-43
2022/03/29 14:49:21;;;;;;;3.83;1.10;;;21.90;65.80;;;;;;6056408;23;95774;-44
2022/03/29 14:51:53;;;;;;;5.50;1.45;;;21.70;66.20;;;;;;6058634;23;95753;-44
2022/03/29 14:54:26;;;;;;;4.90;1.25;;;21.50;66.80;;;;;;6058316;23;95834;-44
2022/03/29 14:56:57;;;;;;;3.63;1.35;;;21.40;66.90;;;;;;6058122;23;95908;-44
2022/03/29 14:59:29;;;;;;;5.25;1.73;;;21.30;66.80;;;;;;6058027;23;95570;-44
2022/03/29 15:02:00;;;;;;;3.83;1.50;;;21.20;66.90;;;;;;6053580;23;95625;-45
2022/03/29 15:04:32;;;;;;;2.22;1.25;;;21.10;67.60;;;;;;6059576;23;95214;-44
2022/03/29 15:07:09;;;;;;;2.50;0.95;;;21.00;68.10;;;;;;6059706;23;95667;-44
2022/03/29 15:09:42;;;;;;;3.90;1.30;;;20.90;68.30;;;;;;6059233;23;95876;-44
2022/03/29 15:12:14;;;;;;;2.75;1.25;;;20.80;68.60;;;;;;6059607;23;95149;-48
2022/03/29 15:14:45;;;;;;;2.97;1.13;;;20.80;68.90;;;;;;6059725;23;95346;-44
2022/03/29 15:17:17;;;;;;;7.45;1.10;;;20.70;69.10;;;;;;6053284;23;96291;-44
2022/03/29 15:19:55;;;;;;;2.00;1.08;;;20.70;69.30;;;;;;6059405;23;95327;-44
2022/03/29 15:22:28;;;;;;;4.32;1.55;;;20.60;69.40;;;;;;6060153;23;95552;-44
2022/03/29 15:24:59;;;;;;;3.88;1.63;;;20.60;69.60;;;;;;6059975;23;95433;-44
2022/03/29 15:27:31;;;;;;;3.00;1.38;;;20.50;69.80;;;;;;6059236;23;96619;-45
2022/03/29 15:30:04;;;;;;;5.35;1.48;;;20.50;70.00;;;;;;6058396;23;95802;-44
2022/03/29 15:32:37;;;;;;;3.55;1.27;;;20.40;70.20;;;;;;6058640;23;95461;-44
2022/03/29 15:35:10;;;;;;;3.85;1.10;;;20.40;70.30;;;;;;6060217;23;95240;-45
2022/03/29 15:37:44;;;;;;;2.15;1.40;;;20.30;70.50;;;;;;6059113;23;95830;-45
2022/03/29 15:40:21;;;;;;;1.85;1.20;;;20.30;70.60;;;;;;6058742;23;95720;-44
2022/03/29 15:42:55;;;;;;;4.30;1.70;;;20.30;70.70;;;;;;6059952;23;95663;-44
2022/03/29 15:45:27;;;;;;;2.30;1.13;;;20.20;70.80;;;;;;6050661;23;95947;-45
2022/03/29 15:48:01;;;;;;;2.42;1.15;;;20.20;71.00;;;;;;6055712;23;96646;-44
2022/03/29 15:50:34;;;;;;;3.97;1.45;;;20.20;71.10;;;;;;6059288;23;95175;-44
2022/03/29 15:53:08;;;;;;;2.60;1.17;;;20.20;71.20;;;;;;6059942;23;95597;-45
2022/03/29 15:55:46;;;;;;;3.90;1.10;;;20.10;71.30;;;;;;6059661;23;95616;-45
2022/03/29 15:58:23;;;;;;;1.65;0.90;;;20.10;71.40;;;;;;6059526;23;96102;-44
2022/03/29 16:01:14;;;;;;;3.55;1.20;;;20.10;71.50;;;;;;6052449;23;95704;-44
2022/03/29 16:03:46;;;;;;;5.25;1.30;;;20.00;71.50;;;;;;6059209;23;95497;-44
2022/03/29 16:06:20;;;;;;;2.70;1.45;;;20.00;71.70;;;;;;6059505;23;95570;-48
2022/03/29 16:08:52;;;;;;;1.77;1.10;;;20.00;71.80;;;;;;6059317;23;97201;-44
2022/03/29 16:11:25;;;;;;;1.73;1.05;;;20.00;72.00;;;;;;6057406;23;97385;-44
2022/03/29 16:13:57;;;;;;;2.78;1.10;;;20.00;72.00;;;;;;6060032;23;95558;-44
2022/03/29 16:16:28;;;;;;;3.10;1.42;;;19.90;71.90;;;;;;6053821;23;95791;-44
2022/03/29 16:18:59;;;;;;;5.95;1.75;;;19.90;72.00;;;;;;6059094;23;96325;-44
2022/03/29 16:21:30;;;;;;;4.03;1.65;;;19.90;72.00;;;;;;6058414;23;95681;-44
2022/03/29 16:24:02;;;;;;;2.03;1.17;;;19.80;72.00;;;;;;6060083;23;95722;-44
2022/03/29 16:26:34;;;;;;;3.33;1.15;;;19.80;72.10;;;;;;6059639;23;95475;-45
2022/03/29 16:29:05;;;;;;;2.95;1.20;;;19.80;72.30;;;;;;6059030;23;95876;-44
2022/03/29 16:31:41;;;;;;;3.42;1.10;;;19.80;72.30;;;;;;6050860;23;95408;-44
2022/03/29 16:34:17;;;;;;;1.33;1.05;;;19.70;72.30;;;;;;6059724;23;95605;-44
2022/03/29 16:36:49;;;;;;;1.48;1.00;;;19.70;72.40;;;;;;6056624;23;96089;-44
2022/03/29 16:39:22;;;;;;;0.95;0.88;;;19.70;72.60;;;;;;6059152;23;96495;-44
2022/03/29 16:41:58;;;;;;;1.60;1.30;;;19.70;72.70;;;;;;6055562;23;95256;-44
2022/03/29 16:44:37;;;;;;;5.15;1.20;;;19.70;72.80;;;;;;6058315;23;95463;-44
2022/03/29 16:47:11;;;;;;;3.17;1.23;;;19.70;72.70;;;;;;6046576;23;95530;-44
2022/03/29 16:49:44;;;;;;;5.18;1.33;;;19.70;72.80;;;;;;6058006;23;95626;-44
2022/03/29 16:52:18;;;;;;;3.78;1.88;;;19.70;72.80;;;;;;6057867;23;95774;-44
2022/03/29 16:54:49;;;;;;;1.17;0.73;;;19.60;72.90;;;;;;6058206;23;95586;-44
2022/03/29 16:57:21;;;;;;;5.78;1.35;;;19.60;73.00;;;;;;6058883;23;95631;-44
2022/03/29 16:59:52;;;;;;;3.13;1.10;;;19.60;72.90;;;;;;6058825;23;96118;-44
2022/03/29 17:02:24;;;;;;;2.13;1.08;;;19.60;73.10;;;;;;6053014;23;95873;-44
2022/03/29 17:04:58;;;;;;;;;;;19.50;73.30;;;;;;6059918;23;95039;-44
2022/03/29 17:07:31;;;;;;;1.48;0.93;;;19.50;73.20;;;;;;6061122;23;95072;-44
2022/03/29 17:10:04;;;;;;;1.60;1.10;;;19.50;73.20;;;;;;6057985;23;95842;-44
2022/03/29 17:12:35;;;;;;;1.63;1.20;;;19.50;73.30;;;;;;6058348;23;95868;-48
2022/03/29 17:15:06;;;;;;;1.38;0.80;;;19.50;73.30;;;;;;6059054;23;95464;-44
2022/03/29 17:17:39;;;;;;;;;;;19.50;73.30;;;;;;6053242;23;95456;-44
2022/03/29 17:20:12;;;;;;;2.78;0.90;;;19.40;73.40;;;;;;6059419;23;96211;-44
2022/03/29 17:22:46;;;;;;;1.67;1.15;;;19.40;73.40;;;;;;6056788;23;95943;-44
2022/03/29 17:25:18;;;;;;;5.50;1.67;;;19.50;73.50;;;;;;6058852;23;95740;-48
2022/03/29 17:27:52;;;;;;;3.30;1.38;;;19.40;73.40;;;;;;6056204;23;95644;-44
2022/03/29 17:30:28;;;;;;;3.58;1.17;;;19.40;73.40;;;;;;6051900;23;95533;-44
2022/03/29 17:33:01;;;;;;;1.40;0.90;;;19.40;73.40;;;;;;6058832;23;95484;-44
2022/03/29 17:35:39;;;;;;;2.55;0.90;;;19.40;73.40;;;;;;6059816;23;95547;-44
2022/03/29 17:38:19;;;;;;;5.07;1.40;;;19.40;73.50;;;;;;6059200;23;95871;-44
2022/03/29 17:40:55;;;;;;;1.98;0.80;;;19.40;73.50;;;;;;6059390;23;96156;-44
2022/03/29 17:43:32;;;;;;;3.38;1.17;;;19.30;73.50;;;;;;6060165;23;95422;-44
2022/03/29 17:46:06;;;;;;;4.65;1.20;;;19.30;73.60;;;;;;6050402;23;95838;-44
2022/03/29 17:48:38;;;;;;;2.88;1.13;;;19.30;73.50;;;;;;6057813;23;95689;-44
2022/03/29 17:51:13;;;;;;;1.52;0.60;;;19.30;73.50;;;;;;6059769;23;95937;-44
2022/03/29 17:53:47;;;;;;;2.97;0.80;;;19.30;73.50;;;;;;6060007;23;95273;-44
2022/03/29 17:56:19;;;;;;;1.23;0.90;;;19.30;73.60;;;;;;6060266;23;95549;-44
2022/03/29 17:58:50;;;;;;;2.67;1.13;;;19.20;73.60;;;;;;6060198;23;95370;-44
2022/03/29 18:01:21;;;;;;;1.50;0.90;;;19.20;73.50;;;;;;6053032;23;95815;-44
2022/03/29 18:03:53;;;;;;;2.28;0.88;;;19.20;73.70;;;;;;6059632;23;95642;-44
2022/03/29 18:06:28;;;;;;;1.50;0.80;;;19.20;73.70;;;;;;6059965;23;95633;-48
2022/03/29 18:08:59;;;;;;;2.90;0.90;;;19.20;73.70;;;;;;6060672;23;95630;-44
2022/03/29 18:11:31;;;;;;;2.58;1.10;;;19.20;73.80;;;;;;6059754;23;95924;-44
2022/03/29 18:14:05;;;;;;;2.78;0.80;;;19.20;73.80;;;;;;6059948;23;95198;-44
2022/03/29 18:16:38;;;;;;;3.05;0.75;;;19.20;73.70;;;;;;6052906;23;97189;-44
2022/03/29 18:19:14;;;;;;;3.03;0.90;;;19.20;73.80;;;;;;6060534;23;96177;-44
2022/03/29 18:21:44;;;;;;;1.08;0.70;;;19.10;73.70;;;;;;6059660;23;96397;-45
2022/03/29 18:24:16;;;;;;;1.92;0.75;;;19.10;73.60;;;;;;6059895;23;95353;-44
2022/03/29 18:26:48;;;;;;;1.13;0.65;;;19.10;73.70;;;;;;6060086;23;95484;-44
2022/03/29 18:29:37;;;;;;;2.60;0.93;;;19.10;73.70;;;;;;6060140;23;95671;-44
2022/03/29 18:32:11;;;;;;;2.15;0.50;;;19.10;73.80;;;;;;6052755;23;96249;-44
2022/03/29 18:34:45;;;;;;;1.30;1.10;;;19.10;73.90;;;;;;6057577;23;97638;-44
2022/03/29 18:37:38;;;;;;;1.55;0.77;;;19.10;73.90;;;;;;6059938;23;95869;-44
2022/03/29 18:40:13;;;;;;;4.82;1.17;;;19.10;73.90;;;;;;6059467;23;95706;-44
2022/03/29 18:42:47;;;;;;;2.33;0.75;;;19.10;73.90;;;;;;6059560;23;96293;-44
2022/03/29 18:45:21;;;;;;;1.17;0.75;;;19.10;73.80;;;;;;6056681;23;95614;-44
2022/03/29 18:47:53;;;;;;;1.55;0.90;;;19.10;73.90;;;;;;6055349;23;95615;-44
2022/03/29 18:50:29;;;;;;;2.13;0.90;;;19.00;73.80;;;;;;6059757;23;95334;-44
2022/03/29 18:53:02;;;;;;;2.15;0.75;;;19.00;73.80;;;;;;6059378;23;96510;-44
2022/03/29 18:55:35;;;;;;;0.80;0.55;;;19.00;73.80;;;;;;6059521;23;96670;-44
2022/03/29 18:58:06;;;;;;;1.38;0.70;;;19.00;73.80;;;;;;6058227;23;95664;-48
2022/03/29 19:00:41;;;;;;;3.40;0.90;;;19.00;73.80;;;;;;6051119;23;95808;-44
2022/03/29 19:03:15;;;;;;;0.95;0.77;;;19.00;73.90;;;;;;6059352;23;96506;-44
2022/03/29 19:05:47;;;;;;;2.17;0.80;;;19.00;73.90;;;;;;6059180;23;95878;-44
2022/03/29 19:08:19;;;;;;;1.90;0.90;;;19.00;73.80;;;;;;6059343;23;95092;-44
2022/03/29 19:10:50;;;;;;;2.95;0.93;;;19.00;73.80;;;;;;6060082;23;95442;-44
2022/03/29 19:13:21;;;;;;;4.53;0.77;;;19.00;73.80;;;;;;6059533;23;95898;-44
2022/03/29 19:15:57;;;;;;;4.43;0.93;;;19.00;73.90;;;;;;6051575;23;95733;-44
2022/03/29 19:18:31;;;;;;;3.30;0.75;;;18.90;73.80;;;;;;6060492;23;95623;-44
2022/03/29 19:21:04;;;;;;;2.60;1.02;;;19.00;73.90;;;;;;6059806;23;95185;-44
2022/03/29 19:23:39;;;;;;;1.58;0.70;;;18.90;73.80;;;;;;6080676;23;97043;-44
2022/03/29 19:26:13;;;;;;;1.42;0.68;;;18.90;73.80;;;;;;6059372;23;95657;-44
2022/03/29 19:28:47;;;;;;;1.58;0.75;;;18.90;73.80;;;;;;6059948;23;95488;-44
2022/03/29 19:31:20;;;;;;;0.95;0.60;;;18.90;73.80;;;;;;6053414;23;96768;-44
2022/03/29 19:33:57;;;;;;;2.20;0.70;;;18.90;73.80;;;;;;6059181;23;96400;-44
2022/03/29 19:36:32;;;;;;;1.30;0.85;;;18.90;73.90;;;;;;6058758;23;95226;-44
2022/03/29 19:39:37;;;;;;;4.70;1.33;;;18.90;73.70;;;;;;6059925;23;95856;-44
2022/03/29 19:42:15;;;;;;;2.55;0.80;;;18.90;73.80;;;;;;6059111;23;95247;-44
2022/03/29 19:45:05;;;;;;;1.95;0.40;;;18.90;73.80;;;;;;6058092;23;95746;-44
2022/03/29 19:47:41;;;;;;;4.20;0.88;;;18.80;73.70;;;;;;6053541;23;95577;-44
2022/03/29 19:50:21;;;;;;;0.95;0.55;;;18.90;73.80;;;;;;6059859;23;95626;-44
2022/03/29 19:53:10;;;;;;;1.35;0.70;;;18.80;73.70;;;;;;6059749;23;95261;-43
2022/03/29 19:55:41;;;;;;;2.03;1.00;;;18.80;73.60;;;;;;6058887;23;95826;-44
2022/03/29 19:58:13;;;;;;;1.75;0.70;;;18.80;73.60;;;;;;6058379;23;95511;-44
2022/03/29 20:00:45;;;;;;;2.17;0.60;;;18.80;73.50;;;;;;6053580;23;95213;-44
2022/03/29 20:03:20;;;;;;;1.85;1.00;;;18.80;73.50;;;;;;6059862;23;95373;-44
2022/03/29 20:05:53;;;;;;;3.00;0.85;;;18.80;73.50;;;;;;6059383;23;96929;-44
2022/03/29 20:08:24;;;;;;;2.38;1.00;;;18.80;73.40;;;;;;6059325;23;95851;-48
2022/03/29 20:10:55;;;;;;;;;;;18.80;73.50;;;;;;6060360;23;95541;-45
2022/03/29 20:13:27;;;;;;;2.13;0.63;;;18.70;73.40;;;;;;6060738;23;95240;-44
2022/03/29 20:16:00;;;;;;;2.40;0.70;;;18.80;73.50;;;;;;6051702;23;95940;-44
2022/03/29 20:18:33;;;;;;;1.85;0.75;;;18.70;73.50;;;;;;6059169;23;95926;-44
2022/03/29 20:21:07;;;;;;;2.85;0.43;;;18.70;73.50;;;;;;6059606;23;95516;-44
2022/03/29 20:23:39;;;;;;;2.85;0.60;;;18.70;73.50;;;;;;6059968;23;95646;-44
2022/03/29 20:26:16;;;;;;;1.42;0.75;;;18.70;73.60;;;;;;6059444;23;96858;-44
2022/03/29 20:28:51;;;;;;;3.17;0.80;;;18.70;73.60;;;;;;6057379;23;95734;-44
2022/03/29 20:31:26;;;;;;;4.68;1.25;;;18.70;73.70;;;;;;6054042;23;95259;-44
2022/03/29 20:33:59;;;;;;;1.20;0.60;;;18.70;73.90;;;;;;6059594;23;95835;-44
2022/03/29 20:36:33;;;;;;;1.83;1.10;;;18.70;73.90;;;;;;6058557;23;95870;-44
2022/03/29 20:39:08;;;;;;;1.70;0.80;;;18.70;73.80;;;;;;6058871;23;95689;-47
2022/03/29 20:41:42;;;;;;;2.85;0.88;;;18.70;73.80;;;;;;6058859;23;95592;-43
2022/03/29 20:44:17;;;;;;;0.95;0.55;;;18.60;73.80;;;;;;6059531;23;95201;-44
2022/03/29 20:46:51;;;;;;;1.75;0.70;;;18.60;73.90;;;;;;6047538;23;95830;-44
2022/03/29 20:49:24;;;;;;;1.05;0.73;;;18.60;73.90;;;;;;6057792;23;95609;-44
2022/03/29 20:52:06;;;;;;;2.20;0.73;;;18.60;73.90;;;;;;6059625;23;95697;-44
2022/03/29 20:54:40;;;;;;;1.08;0.55;;;18.60;73.90;;;;;;6059644;23;95575;-44
2022/03/29 20:57:13;;;;;;;3.33;0.70;;;18.60;73.90;;;;;;6059056;23;95828;-44
2022/03/29 20:59:46;;;;;;;5.53;1.38;;;18.60;74.00;;;;;;6057276;23;95251;-43
2022/03/29 21:02:18;;;;;;;2.65;0.60;;;18.60;74.00;;;;;;6053288;23;95823;-44
2022/03/29 21:04:51;;;;;;;2.50;0.50;;;18.60;74.10;;;;;;6058614;23;95238;-44
2022/03/29 21:07:22;;;;;;;3.90;0.80;;;18.60;74.10;;;;;;6058651;23;95825;-44
2022/03/29 21:09:57;;;;;;;4.40;0.85;;;18.60;74.10;;;;;;6058719;23;95160;-44
2022/03/29 21:12:32;;;;;;;2.25;1.15;;;18.60;74.20;;;;;;6059049;23;95440;-44
2022/03/29 21:15:05;;;;;;;1.50;0.60;;;18.60;74.20;;;;;;6059669;23;95279;-44
2022/03/29 21:17:37;;;;;;;4.05;0.80;;;18.60;74.30;;;;;;6054394;23;97247;-44
2022/03/29 21:20:10;;;;;;;2.55;0.65;;;18.60;74.40;;;;;;6059643;23;95902;-44
2022/03/29 21:22:43;;;;;;;3.50;0.70;;;18.60;74.50;;;;;;6060213;23;95625;-44
2022/03/29 21:25:28;;;;;;;2.20;0.55;;;18.50;74.40;;;;;;6060760;23;96046;-48
2022/03/29 21:27:59;;;;;;;0.80;0.60;;;18.50;74.50;;;;;;6059639;23;95883;-44
2022/03/29 21:30:31;;;;;;;2.78;0.65;;;18.50;74.50;;;;;;6052758;23;95284;-44
2022/03/29 21:33:06;;;;;;;1.95;0.55;;;18.60;74.50;;;;;;6060549;23;95134;-44
2022/03/29 21:35:52;;;;;;;0.90;0.80;;;18.50;74.50;;;;;;6060274;23;95281;-44
2022/03/29 21:38:25;;;;;;;2.78;0.82;;;18.50;74.50;;;;;;6059288;23;95880;-44